Time;durP1;ratioP1;P1;durP2;ratioP2;P2;SDS_P1;SDS_P2;PMS_P1;PMS_P2;Temp;Humidity;BMP_temperature;BMP_pressure;BME280_temperature;BME280_humidity;BME280_pressure;Samples;Min_cycle;Max_cycle;Signal;HPM_P1;HPM_P2
2024/04/13 00:01:33;;;;;;;23.17;10.80;;;;;;;9.13;100.00;101885.63;5303128;26;20396;-74
2024/04/13 00:03:59;;;;;;;28.17;10.15;;;;;;;9.12;100.00;101900.75;5309762;26;20019;-74
2024/04/13 00:06:26;;;;;;;36.90;12.38;;;;;;;9.16;100.00;101894.22;5304914;26;20006;-74
2024/04/13 00:08:51;;;;;;;29.45;11.57;;;;;;;9.15;100.00;101897.84;5303562;26;20054;-73
2024/04/13 00:11:16;;;;;;;36.40;11.63;;;;;;;9.16;100.00;101893.38;5302657;26;20001;-75
2024/04/13 00:13:42;;;;;;;30.13;12.73;;;;;;;9.16;100.00;101894.22;5306879;26;20322;-75
2024/04/13 00:16:07;;;;;;;27.33;12.13;;;;;;;9.12;100.00;101887.44;5316765;26;20015;-74
2024/04/13 00:18:33;;;;;;;32.43;10.57;;;;;;;9.12;100.00;101892.78;5359251;26;20006;-74
2024/04/13 00:20:59;;;;;;;34.07;10.40;;;;;;;9.19;100.00;101893.97;5314507;26;20004;-74
2024/04/13 00:23:24;;;;;;;46.65;11.98;;;;;;;9.17;100.00;101882.56;5335182;26;20001;-74
2024/04/13 00:25:51;;;;;;;32.95;11.32;;;;;;;9.13;100.00;101882.94;5316633;26;20080;-74
2024/04/13 00:28:17;;;;;;;35.85;11.57;;;;;;;9.13;100.00;101878.50;5307772;26;20001;-74
2024/04/13 00:30:43;;;;;;;;;;;;;;;9.14;100.00;101874.84;5322435;26;20014;-74
2024/04/13 00:33:09;;;;;;;34.60;10.52;;;;;;;9.11;100.00;101863.56;5312364;26;19927;-74
2024/04/13 00:35:35;;;;;;;33.25;12.30;;;;;;;9.00;100.00;101860.00;5307691;26;20033;-74
2024/04/13 00:38:01;;;;;;;32.80;10.23;;;;;;;8.98;100.00;101850.44;5302881;26;20001;-75
2024/04/13 00:40:27;;;;;;;38.20;10.40;;;;;;;8.93;100.00;101845.47;5318717;26;20004;-75
2024/04/13 00:42:52;;;;;;;43.13;11.20;;;;;;;9.01;100.00;101850.16;5301217;26;20071;-74
2024/04/13 00:45:17;;;;;;;33.83;10.00;;;;;;;9.04;100.00;101853.44;5310913;26;20005;-74
2024/04/13 00:47:45;;;;;;;;;;;;;;;8.99;100.00;101838.78;5303187;26;20001;-74
2024/04/13 00:50:11;;;;;;;38.22;12.35;;;;;;;8.86;100.00;101829.16;5302385;26;19976;-73
2024/04/13 00:52:47;;;;;;;30.10;11.43;;;;;;;8.86;100.00;101826.47;5300962;26;20381;-75
2024/04/13 00:55:15;;;;;;;31.05;11.13;;;;;;;8.88;100.00;101832.53;5316178;26;20017;-74
2024/04/13 00:57:42;;;;;;;28.95;10.30;;;;;;;8.85;100.00;101843.44;5302917;26;20080;-74
2024/04/13 01:00:12;;;;;;;34.67;10.85;;;;;;;8.89;100.00;101844.03;5315813;26;20017;-75
2024/04/13 01:02:42;;;;;;;34.90;12.55;;;;;;;8.77;100.00;101837.88;5332263;26;19993;-74
2024/04/13 01:05:08;;;;;;;34.38;12.82;;;;;;;8.73;100.00;101839.09;5335316;26;20460;-74
2024/04/13 01:07:33;;;;;;;37.40;13.77;;;;;;;8.71;100.00;101840.19;5335890;26;20001;-74
2024/04/13 01:09:59;;;;;;;33.05;13.82;;;;;;;8.70;100.00;101836.69;5334264;26;20016;-75
2024/04/13 01:12:24;;;;;;;38.03;12.50;;;;;;;8.72;100.00;101842.75;5336126;26;20051;-73
2024/04/13 01:14:51;;;;;;;47.17;14.27;;;;;;;8.75;100.00;101839.81;5333403;26;19997;-73
2024/04/13 01:17:17;;;;;;;43.20;14.40;;;;;;;8.72;100.00;101837.41;5335990;26;20510;-74
2024/04/13 01:19:42;;;;;;;44.10;16.57;;;;;;;8.72;100.00;101844.56;5336337;26;19997;-74
2024/04/13 01:22:08;;;;;;;40.80;15.30;;;;;;;8.79;100.00;101843.09;5336045;26;20008;-74
2024/04/13 01:24:33;;;;;;;34.40;13.68;;;;;;;8.73;100.00;101832.94;5328612;26;20748;-74
2024/04/13 01:26:58;;;;;;;37.97;14.82;;;;;;;8.70;100.00;101839.34;5336455;26;20078;-74
2024/04/13 01:29:24;;;;;;;45.80;16.27;;;;;;;8.66;100.00;101835.22;5333370;26;20009;-74
2024/04/13 01:31:49;;;;;;;43.90;15.97;;;;;;;8.77;100.00;101843.19;5328290;26;20012;-74
2024/04/13 01:34:15;;;;;;;39.73;15.97;;;;;;;8.76;100.00;101844.19;5338975;26;20029;-73
2024/04/13 01:36:41;;;;;;;43.73;18.47;;;;;;;8.71;100.00;101838.41;5325290;26;20343;-74
2024/04/13 01:39:12;;;;;;;42.03;16.35;;;;;;;8.67;100.00;101847.59;5338976;26;20009;-75
2024/04/13 01:41:39;;;;;;;56.75;19.50;;;;;;;8.66;100.00;101837.91;5339364;26;20082;-74
2024/04/13 01:44:06;;;;;;;43.72;18.27;;;;;;;8.59;100.00;101836.69;5337681;26;20012;-74
2024/04/13 01:46:31;;;;;;;;;;;;;;;8.50;100.00;101832.97;5326848;26;20016;-74
2024/04/13 01:48:57;;;;;;;46.30;18.50;;;;;;;8.52;100.00;101846.13;5325185;26;20471;-74
2024/04/13 01:51:23;;;;;;;43.40;17.63;;;;;;;8.54;100.00;101839.72;5335450;26;20005;-74
2024/04/13 01:53:48;;;;;;;;;;;;;;;8.59;100.00;101844.69;5324650;26;19997;-74
2024/04/13 01:56:14;;;;;;;46.78;18.13;;;;;;;8.57;100.00;101844.81;5335281;26;19995;-74
2024/04/13 01:58:39;;;;;;;57.83;20.97;;;;;;;8.56;100.00;101856.41;5332564;26;20373;-74
2024/04/13 02:01:06;;;;;;;54.43;21.00;;;;;;;8.52;100.00;101867.44;5322231;26;19998;-74
2024/04/13 02:03:32;;;;;;;62.30;20.02;;;;;;;8.58;100.00;101858.97;5310417;26;20092;-73
2024/04/13 02:06:02;;;;;;;44.70;18.42;;;;;;;8.58;100.00;101851.00;5327718;26;20805;-74
2024/04/13 02:08:28;;;;;;;66.72;22.90;;;;;;;8.58;100.00;101853.66;5320888;26;20006;-75
2024/04/13 02:10:54;;;;;;;54.03;20.17;;;;;;;8.63;100.00;101851.47;5345966;26;20099;-74
2024/04/13 02:13:20;;;;;;;53.22;20.70;;;;;;;8.66;100.00;101844.09;5327095;26;20351;-74
2024/04/13 02:15:46;;;;;;;47.42;19.52;;;;;;;8.66;100.00;101838.75;5323532;26;20013;-74
2024/04/13 02:18:12;;;;;;;45.22;19.25;;;;;;;8.67;100.00;101828.97;5316147;26;20010;-75
2024/04/13 02:20:37;;;;;;;59.58;18.80;;;;;;;8.65;100.00;101828.22;5309611;26;20001;-74
2024/04/13 02:23:04;;;;;;;50.33;19.07;;;;;;;8.75;100.00;101831.81;5312815;26;20052;-74
2024/04/13 02:25:30;;;;;;;49.05;19.45;;;;;;;8.78;100.00;101826.28;5306956;26;20348;-74
2024/04/13 02:27:56;;;;;;;54.70;20.17;;;;;;;8.74;100.00;101816.00;5319992;26;20005;-73
2024/04/13 02:30:21;;;;;;;56.83;20.63;;;;;;;8.78;100.00;101814.75;5319421;26;20033;-74
2024/04/13 02:32:47;;;;;;;59.17;19.50;;;;;;;8.71;100.00;101798.47;5323469;26;20478;-75
2024/04/13 02:35:12;;;;;;;53.30;19.90;;;;;;;8.76;100.00;101812.25;5315252;26;20013;-75
2024/04/13 02:37:40;;;;;;;43.63;17.87;;;;;;;8.80;100.00;101792.38;5330675;26;20006;-75
2024/04/13 02:40:08;;;;;;;45.40;19.30;;;;;;;8.81;100.00;101802.06;5311724;26;20343;-74
2024/04/13 02:42:37;;;;;;;61.00;19.60;;;;;;;8.88;100.00;101795.25;5319837;26;20137;-74
2024/04/13 02:45:03;;;;;;;74.45;21.58;;;;;;;8.93;100.00;101799.38;5314535;26;20013;-75
2024/04/13 02:47:28;;;;;;;54.92;19.13;;;;;;;8.95;100.00;101789.44;5320348;26;20444;-74
2024/04/13 02:49:54;;;;;;;54.33;18.70;;;;;;;8.89;100.00;101782.78;5328977;26;20006;-74
2024/04/13 02:52:20;;;;;;;54.00;17.23;;;;;;;8.94;100.00;101793.03;5304121;26;20002;-74
2024/04/13 02:54:45;;;;;;;46.50;17.27;;;;;;;8.92;100.00;101789.66;5303174;26;20337;-74
2024/04/13 02:57:12;;;;;;;46.50;19.08;;;;;;;8.94;100.00;101787.72;5318201;26;20014;-75
2024/04/13 02:59:38;;;;;;;50.55;19.80;;;;;;;8.93;100.00;101775.38;5317872;26;20010;-74
2024/04/13 03:02:04;;;;;;;;;;;;;;;8.93;100.00;101765.56;5315919;26;20000;-74
2024/04/13 03:04:31;;;;;;;53.30;18.90;;;;;;;8.98;100.00;101767.84;5338011;26;19926;-74
2024/04/13 03:06:59;;;;;;;46.72;16.85;;;;;;;8.98;100.00;101765.19;5337776;26;20008;-74
2024/04/13 03:09:25;;;;;;;52.40;17.90;;;;;;;8.95;100.00;101760.97;5336292;26;20024;-74
2024/04/13 03:11:50;;;;;;;44.83;17.98;;;;;;;9.04;100.00;101770.03;5338445;26;20072;-74
2024/04/13 03:14:16;;;;;;;43.10;17.88;;;;;;;9.06;100.00;101770.72;5327588;26;20286;-74
2024/04/13 03:16:41;;;;;;;45.88;18.50;;;;;;;9.08;100.00;101782.97;5307979;26;20066;-74
2024/04/13 03:19:07;;;;;;;44.93;18.03;;;;;;;9.06;100.00;101781.38;5336655;26;20600;-75
2024/04/13 03:21:35;;;;;;;41.80;16.63;;;;;;;9.12;100.00;101788.03;5323432;26;20012;-75
2024/04/13 03:24:01;;;;;;;52.53;19.15;;;;;;;9.12;100.00;101786.19;5338308;26;19997;-74
2024/04/13 03:26:27;;;;;;;44.22;16.65;;;;;;;9.11;100.00;101776.53;5337501;26;20279;-74
2024/04/13 03:28:52;;;;;;;31.80;15.63;;;;;;;9.04;100.00;101775.34;5336462;26;20012;-74
2024/04/13 03:31:18;;;;;;;44.90;16.50;;;;;;;8.95;100.00;101765.47;5337777;26;20001;-75
2024/04/13 03:33:43;;;;;;;43.47;17.80;;;;;;;8.81;100.00;101759.44;5338152;26;20696;-74
2024/04/13 03:36:09;;;;;;;37.00;16.13;;;;;;;8.85;100.00;101760.91;5337487;26;20235;-74
2024/04/13 03:38:34;;;;;;;39.92;17.30;;;;;;;8.85;100.00;101773.38;5333529;26;20408;-74
2024/04/13 03:41:07;;;;;;;41.97;15.38;;;;;;;8.86;100.00;101756.41;5314305;26;20012;-75
2024/04/13 03:43:36;;;;;;;34.17;14.73;;;;;;;8.91;100.00;101756.03;5307841;26;20001;-74
2024/04/13 03:46:03;;;;;;;40.88;16.77;;;;;;;9.00;100.00;101755.25;5337633;26;20047;-75
2024/04/13 03:48:29;;;;;;;37.35;15.90;;;;;;;9.13;100.00;101763.06;5350396;26;20334;-74
2024/04/13 03:50:54;;;;;;;35.33;14.55;;;;;;;9.31;100.00;101769.53;5337980;26;20020;-74
2024/04/13 03:53:20;;;;;;;33.55;15.10;;;;;;;9.33;100.00;101767.56;5321971;26;20002;-75
2024/04/13 03:55:45;;;;;;;36.23;14.93;;;;;;;9.40;100.00;101762.56;5351395;26;20444;-74
2024/04/13 03:58:10;;;;;;;33.87;15.07;;;;;;;9.38;100.00;101749.38;5338215;26;20357;-74
2024/04/13 04:00:36;;;;;;;37.60;14.50;;;;;;;9.35;100.00;101748.78;5319076;26;20276;-74
2024/04/13 04:03:01;;;;;;;36.87;15.53;;;;;;;9.21;100.00;101755.28;5328530;26;19997;-73
2024/04/13 04:05:29;;;;;;;37.07;15.93;;;;;;;9.08;100.00;101753.66;5333273;26;20437;-74
2024/04/13 04:07:55;;;;;;;38.95;15.77;;;;;;;9.20;100.00;101753.59;5310525;26;20380;-74
2024/04/13 04:10:22;;;;;;;34.08;15.07;;;;;;;9.32;100.00;101765.03;5310358;26;20084;-75
2024/04/13 04:12:47;;;;;;;38.13;15.65;;;;;;;9.35;100.00;101756.78;5330369;26;20010;-74
2024/04/13 04:15:12;;;;;;;35.30;14.55;;;;;;;9.37;100.00;101753.03;5303113;26;20001;-74
2024/04/13 04:17:38;;;;;;;33.67;15.33;;;;;;;9.34;100.00;101758.63;5331461;26;20480;-74
2024/04/13 04:20:05;;;;;;;38.40;15.13;;;;;;;9.28;100.00;101759.97;5324561;26;20004;-74
2024/04/13 04:22:32;;;;;;;31.42;15.15;;;;;;;9.26;100.00;101756.56;5318564;26;20019;-74
2024/04/13 04:24:57;;;;;;;30.17;14.35;;;;;;;9.14;100.00;101751.44;5315594;26;20484;-75
2024/04/13 04:27:23;;;;;;;32.38;14.90;;;;;;;9.13;100.00;101761.28;5309765;26;20033;-74
2024/04/13 04:29:49;;;;;;;37.80;15.15;;;;;;;9.13;100.00;101755.94;5309792;26;20016;-74
2024/04/13 04:32:14;;;;;;;35.50;15.30;;;;;;;9.10;100.00;101756.19;5319484;26;20008;-73
2024/04/13 04:34:39;;;;;;;35.13;14.17;;;;;;;9.24;100.00;101753.19;5316492;26;20079;-74
2024/04/13 04:37:05;;;;;;;41.10;15.43;;;;;;;9.28;100.00;101759.13;5322742;26;20013;-74
2024/04/13 04:39:30;;;;;;;31.40;13.40;;;;;;;9.27;100.00;101752.09;5314146;26;20016;-74
2024/04/13 04:41:56;;;;;;;32.33;13.90;;;;;;;9.19;100.00;101742.09;5311464;26;19997;-74
2024/04/13 04:44:21;;;;;;;31.37;15.47;;;;;;;9.35;100.00;101743.47;5333617;26;20008;-74
2024/04/13 04:46:47;;;;;;;35.80;15.50;;;;;;;9.36;100.00;101734.47;5312958;26;20016;-75
2024/04/13 04:49:13;;;;;;;29.45;12.95;;;;;;;9.44;100.00;101743.53;5317450;26;20034;-74
2024/04/13 04:51:38;;;;;;;36.90;12.73;;;;;;;9.63;100.00;101752.63;5301155;26;20002;-74
2024/04/13 04:54:03;;;;;;;26.87;12.73;;;;;;;9.64;100.00;101747.13;5303291;26;20017;-74
2024/04/13 04:56:31;;;;;;;28.90;12.73;;;;;;;9.65;100.00;101735.50;5302591;26;20337;-74
2024/04/13 04:58:56;;;;;;;30.40;12.95;;;;;;;9.81;100.00;101735.03;5304145;26;20020;-74
2024/04/13 05:01:22;;;;;;;26.03;12.23;;;;;;;9.77;100.00;101733.59;5307425;26;20002;-75
2024/04/13 05:03:47;;;;;;;28.30;12.82;;;;;;;9.93;100.00;101735.78;5303020;26;20002;-74
2024/04/13 05:06:13;;;;;;;33.57;11.73;;;;;;;9.91;100.00;101737.75;5320920;26;20014;-74
2024/04/13 05:08:38;;;;;;;30.87;12.73;;;;;;;9.97;100.00;101731.84;5317559;26;20001;-74
2024/04/13 05:11:04;;;;;;;23.33;10.77;;;;;;;10.03;100.00;101731.31;5302566;26;20006;-74
2024/04/13 05:13:29;;;;;;;25.13;10.40;;;;;;;10.11;100.00;101734.19;5302739;26;20077;-74
2024/04/13 05:15:58;;;;;;;28.50;11.60;;;;;;;10.22;100.00;101737.72;5321591;26;20068;-74
2024/04/13 05:18:23;;;;;;;22.63;9.90;;;;;;;10.32;100.00;101731.47;5316289;26;20005;-75
2024/04/13 05:20:49;;;;;;;23.15;10.73;;;;;;;10.38;100.00;101730.06;5322786;26;20086;-74
2024/04/13 05:23:14;;;;;;;29.10;10.40;;;;;;;10.48;100.00;101738.91;5313809;26;20067;-74
2024/04/13 05:25:42;;;;;;;25.37;10.03;;;;;;;10.54;100.00;101743.72;5316595;26;20053;-75
2024/04/13 05:28:08;;;;;;;23.55;9.57;;;;;;;10.60;100.00;101736.13;5314950;26;20337;-74
2024/04/13 05:30:35;;;;;;;23.65;9.82;;;;;;;10.82;100.00;101751.91;5314633;26;20001;-75
2024/04/13 05:33:00;;;;;;;19.77;8.65;;;;;;;10.96;100.00;101743.47;5309180;26;20034;-74
2024/04/13 05:35:26;;;;;;;21.95;10.18;;;;;;;11.04;100.00;101740.09;5317004;26;20016;-75
2024/04/13 05:37:52;;;;;;;19.08;8.73;;;;;;;11.15;100.00;101731.09;5302234;26;20672;-75
2024/04/13 05:40:17;;;;;;;27.33;8.60;;;;;;;11.27;100.00;101739.81;5301682;26;20016;-75
2024/04/13 05:42:42;;;;;;;17.87;8.20;;;;;;;11.49;100.00;101741.28;5300010;26;20075;-74
2024/04/13 05:45:08;;;;;;;21.13;8.03;;;;;;;11.78;100.00;101736.72;5306275;26;21552;-75
2024/04/13 05:47:33;;;;;;;18.87;7.90;;;;;;;12.11;100.00;101714.94;5304612;26;20006;-73
2024/04/13 05:49:59;;;;;;;17.33;7.60;;;;;;;12.98;100.00;101737.59;5302187;26;20080;-74
2024/04/13 05:52:24;;;;;;;12.27;6.43;;;;;;;13.80;100.00;101706.00;5329120;26;20013;-74
2024/04/13 05:54:50;;;;;;;16.73;6.77;;;;;;;13.46;100.00;101613.78;5316123;26;20001;-75
2024/04/13 05:57:15;;;;;;;12.40;6.67;;;;;;;13.69;100.00;101599.75;5306541;26;20709;-74
2024/04/13 05:59:41;;;;;;;11.63;6.07;;;;;;;13.45;100.00;101549.53;5317456;26;20068;-74
2024/04/13 06:02:06;;;;;;;14.50;6.70;;;;;;;13.26;100.00;101515.75;5318758;26;20013;-74
2024/04/13 06:04:32;;;;;;;17.00;6.88;;;;;;;12.88;100.00;101512.56;5296875;26;20350;-74
2024/04/13 06:06:57;;;;;;;15.67;6.60;;;;;;;12.86;100.00;101530.63;5301296;26;20009;-74
2024/04/13 06:09:23;;;;;;;13.07;6.13;;;;;;;13.01;100.00;101539.75;5342841;26;20464;-74
2024/04/13 06:11:48;;;;;;;13.20;7.23;;;;;;;13.30;100.00;101549.31;5301977;26;20006;-74
2024/04/13 06:14:13;;;;;;;11.80;5.70;;;;;;;13.55;100.00;101522.59;5327205;26;20001;-74
2024/04/13 06:16:39;;;;;;;15.63;6.43;;;;;;;14.01;100.00;101498.88;5315496;26;20013;-74
2024/04/13 06:19:05;;;;;;;11.00;5.90;;;;;;;14.60;100.00;101464.59;5339264;26;20001;-74
2024/04/13 06:21:31;;;;;;;12.02;5.65;;;;;;;15.04;100.00;101371.88;5310061;26;20005;-74
2024/04/13 06:23:56;;;;;;;12.93;6.20;;;;;;;14.73;100.00;101257.94;5332548;26;20063;-74
2024/04/13 06:26:22;;;;;;;16.63;5.50;;;;;;;14.76;100.00;101289.84;5331004;26;20350;-74
2024/04/13 06:28:49;;;;;;;19.48;6.38;;;;;;;14.20;100.00;101207.66;5323728;26;20001;-75
2024/04/13 06:31:15;;;;;;;10.00;5.55;;;;;;;14.21;100.00;101237.03;5331223;26;20005;-74
2024/04/13 06:33:40;;;;;;;11.40;5.97;;;;;;;14.64;100.00;101242.06;5325332;26;20016;-75
2024/04/13 06:36:06;;;;;;;15.47;5.87;;;;;;;15.23;100.00;101274.56;5327259;26;20005;-75
2024/04/13 06:38:31;;;;;;;8.82;4.47;;;;;;;15.75;100.00;101165.28;5329148;26;20885;-75
2024/04/13 06:40:57;;;;;;;12.70;4.43;;;;;;;15.83;100.00;101111.34;5323464;26;20367;-75
2024/04/13 06:43:22;;;;;;;16.48;5.38;;;;;;;15.88;100.00;101057.78;5331673;26;20005;-74
2024/04/13 06:45:48;;;;;;;10.85;5.72;;;;;;;15.37;100.00;101003.94;5325757;26;20504;-74
2024/04/13 06:48:14;;;;;;;9.80;5.47;;;;;;;15.20;100.00;101063.28;5336254;26;20001;-74
2024/04/13 06:50:40;;;;;;;10.50;4.65;;;;;;;14.54;100.00;101049.66;5311034;26;20001;-74
2024/04/13 06:53:05;;;;;;;7.72;5.05;;;;;;;14.61;100.00;101135.78;5347019;26;20011;-74
2024/04/13 06:55:31;;;;;;;12.73;6.45;;;;;;;15.07;100.00;101132.19;5313187;26;20005;-74
2024/04/13 06:57:56;;;;;;;10.87;5.57;;;;;;;15.46;100.00;101171.47;5309553;26;20458;-73
2024/04/13 07:00:21;;;;;;;10.90;5.73;;;;;;;15.01;100.00;101049.53;5309066;26;20268;-74
2024/04/13 07:02:47;;;;;;;12.97;6.13;;;;;;;15.34;100.00;101087.69;5315000;26;20441;-74
2024/04/13 07:05:13;;;;;;;10.40;4.95;;;;;;;15.79;100.00;101124.34;5336498;26;20075;-74
2024/04/13 07:07:39;;;;;;;11.38;5.43;;;;;;;16.12;100.00;101085.38;5320471;26;20024;-74
2024/04/13 07:10:06;;;;;;;11.48;5.15;;;;;;;16.37;100.00;100948.44;5304046;26;20041;-74
2024/04/13 07:12:31;;;;;;;12.63;5.13;;;;;;;16.46;100.00;100915.75;5304048;26;20005;-75
2024/04/13 07:14:57;;;;;;;7.90;4.87;;;;;;;15.81;100.00;100874.63;5303692;26;20511;-76
2024/04/13 07:17:22;;;;;;;10.05;4.70;;;;;;;16.02;100.00;100991.44;5303446;26;20033;-74
2024/04/13 07:19:47;;;;;;;10.10;5.33;;;;;;;15.63;100.00;101012.31;5321367;26;20075;-74
2024/04/13 07:22:13;;;;;;;16.10;5.73;;;;;;;15.53;100.00;101070.97;5335717;26;20452;-74
2024/04/13 07:24:38;;;;;;;11.63;5.40;;;;;;;15.82;100.00;101160.81;5305392;26;20344;-74
2024/04/13 07:27:04;;;;;;;14.87;5.73;;;;;;;16.06;100.00;101105.84;5324808;26;20004;-75
2024/04/13 07:29:30;;;;;;;14.50;5.72;;;;;;;16.30;100.00;101049.94;5306606;26;20024;-74
2024/04/13 07:31:55;;;;;;;9.13;4.77;;;;;;;16.02;100.00;101080.31;5303310;26;20456;-74
2024/04/13 07:34:20;;;;;;;12.63;5.27;;;;;;;16.36;100.00;101114.63;5303612;26;20085;-74
2024/04/13 07:36:46;;;;;;;12.07;4.77;;;;;;;16.31;100.00;100990.44;5302758;26;20002;-75
2024/04/13 07:39:12;;;;;;;12.60;4.75;;;;;;;16.94;100.00;101030.97;5306067;26;20084;-75
2024/04/13 07:41:41;;;;;;;13.50;5.38;;;;;;;16.74;100.00;100939.16;5302979;26;20014;-74
2024/04/13 07:44:06;;;;;;;9.82;4.10;;;;;;;16.42;100.00;100962.97;5325496;26;20008;-74
2024/04/13 07:46:33;;;;;;;10.23;4.30;;;;;;;16.90;100.00;101042.34;5333070;26;20059;-75
2024/04/13 07:48:58;;;;;;;11.00;4.65;;;;;;;17.09;100.00;100909.47;5325251;26;20004;-75
2024/04/13 07:51:23;;;;;;;12.93;4.90;;;;;;;17.01;100.00;100844.91;5337535;26;20011;-75
2024/04/13 07:53:49;;;;;;;11.80;4.07;;;;;;;17.27;100.00;100923.22;5335624;26;20440;-74
2024/04/13 07:56:15;;;;;;;10.68;4.85;;;;;;;17.72;100.00;100872.28;5337200;26;20015;-74
2024/04/13 07:58:41;;;;;;;10.40;4.30;;;;;;;17.80;100.00;100776.72;5304821;26;20001;-75
2024/04/13 08:01:06;;;;;;;8.30;4.80;;;;;;;17.97;100.00;100700.69;5324998;26;20016;-75
2024/04/13 08:03:31;;;;;;;8.63;4.20;;;;;;;17.92;100.00;100669.72;5306860;26;20618;-74
2024/04/13 08:05:57;;;;;;;10.40;4.30;;;;;;;17.74;100.00;100599.34;5316709;26;20229;-75
2024/04/13 08:08:22;;;;;;;12.23;5.00;;;;;;;18.03;100.00;100660.16;5302914;26;20002;-74
2024/04/13 08:10:47;;;;;;;12.07;4.87;;;;;;;17.59;100.00;100721.06;5320601;26;20609;-74
2024/04/13 08:13:15;;;;;;;13.23;4.77;;;;;;;17.99;100.00;100677.81;5335145;26;20284;-74
2024/04/13 08:15:40;;;;;;;9.23;4.05;;;;;;;17.76;100.00;100664.75;5304773;26;20009;-74
2024/04/13 08:18:05;;;;;;;18.57;5.53;;;;;;;17.83;100.00;100670.19;5336572;26;20001;-74
2024/04/13 08:20:31;;;;;;;10.37;5.27;;;;;;;17.89;100.00;100605.34;5307557;26;20364;-74
2024/04/13 08:22:56;;;;;;;8.38;3.22;;;;;;;18.22;100.00;100649.47;5302847;26;20343;-75
2024/04/13 08:25:22;;;;;;;12.20;4.13;;;;;;;17.79;100.00;100596.00;5329991;26;20057;-75
2024/04/13 08:27:47;;;;;;;10.47;4.90;;;;;;;17.57;100.00;100566.59;5309275;26;20005;-74
2024/04/13 08:30:13;;;;;;;14.07;5.10;;;;;;;17.81;100.00;100586.66;5317372;26;20009;-74
2024/04/13 08:32:38;;;;;;;8.60;3.97;;;;;;;18.29;100.00;100723.22;5321104;26;20250;-74
2024/04/13 08:35:05;;;;;;;9.93;4.32;;;;;;;18.77;100.00;100723.63;5322008;26;20236;-74
2024/04/13 08:37:32;;;;;;;15.30;5.05;;;;;;;18.31;100.00;100548.19;5321807;26;20028;-75
2024/04/13 08:39:57;;;;;;;;;;;;;;;18.02;100.00;100488.28;5327797;26;20001;-75
2024/04/13 08:42:32;;;;;;;14.27;5.05;;;;;;;18.33;100.00;100565.00;5335204;26;19933;-74
2024/04/13 08:44:58;;;;;;;10.50;5.53;;;;;;;18.74;100.00;100479.84;5316896;26;20021;-74
2024/04/13 08:47:26;;;;;;;14.73;5.97;;;;;;;18.80;100.00;100419.50;5299862;26;20012;-74
2024/04/13 08:49:52;;;;;;;10.35;3.80;;;;;;;18.68;100.00;100426.63;5327942;26;20009;-76
2024/04/13 08:52:19;;;;;;;9.32;4.03;;;;;;;19.30;100.00;100526.75;5302745;26;20449;-73
2024/04/13 08:54:45;;;;;;;8.45;3.80;;;;;;;19.45;100.00;100477.63;5330313;26;20472;-74
2024/04/13 08:57:15;;;;;;;9.27;3.70;;;;;;;19.52;100.00;100356.53;5311718;26;20011;-75
2024/04/13 08:59:42;;;;;;;8.93;4.45;;;;;;;19.13;100.00;100053.84;5303321;26;20047;-74
2024/04/13 09:02:14;;;;;;;12.82;3.85;;;;;;;19.57;100.00;100073.22;5330664;26;20383;-76
2024/04/13 09:04:39;;;;;;;12.35;4.18;;;;;;;18.89;100.00;100012.41;5330044;26;20001;-74
2024/04/13 09:07:04;;;;;;;11.37;4.13;;;;;;;19.13;100.00;100118.78;5327394;26;20047;-74
2024/04/13 09:09:32;;;;;;;13.35;4.65;;;;;;;19.06;100.00;100312.00;5333771;26;20223;-74
2024/04/13 09:11:58;;;;;;;11.60;4.18;;;;;;;18.90;100.00;100127.66;5332185;26;20022;-74
2024/04/13 09:14:25;;;;;;;14.13;4.10;;;;;;;19.17;100.00;100267.94;5335382;26;20019;-76
2024/04/13 09:16:51;;;;;;;9.40;4.05;;;;;;;19.14;100.00;100187.22;5327999;26;20012;-74
2024/04/13 09:19:16;;;;;;;9.52;3.80;;;;;;;19.76;100.00;100323.06;5320229;26;20013;-77
2024/04/13 09:21:42;;;;;;;8.80;3.90;;;;;;;19.20;100.00;99942.78;5332997;26;20462;-78
2024/04/13 09:24:09;;;;;;;13.65;3.97;;;;;;;19.28;100.00;100209.50;5322922;26;20243;-75
2024/04/13 09:26:42;;;;;;;10.48;3.83;;;;;;;20.08;100.00;100235.19;5328511;26;20001;-74
2024/04/13 09:29:07;;;;;;;11.73;4.47;;;;;;;20.54;100.00;100085.13;5302259;26;19998;-76
2024/04/13 09:31:39;;;;;;;12.98;3.50;;;;;;;20.76;100.00;100171.25;5316392;26;20047;-75
2024/04/13 09:34:05;;;;;;;9.07;3.30;;;;;;;21.65;96.49;100065.41;5318073;26;20006;-75
2024/04/13 09:36:31;;;;;;;7.40;3.75;;;;;;;21.27;93.01;99770.34;5319305;26;20005;-75
2024/04/13 09:38:57;;;;;;;7.22;3.58;;;;;;;21.20;92.31;99796.88;5318215;26;20019;-73
2024/04/13 09:41:28;;;;;;;11.13;3.88;;;;;;;20.97;92.04;99836.78;5333134;26;20012;-75
2024/04/13 09:43:53;;;;;;;9.25;4.10;;;;;;;21.73;89.12;99808.81;5330560;26;20013;-74
2024/04/13 09:46:19;;;;;;;11.13;4.43;;;;;;;21.89;89.19;99908.41;5348423;26;20386;-76
2024/04/13 09:48:45;;;;;;;11.85;3.65;;;;;;;22.43;86.01;99781.56;5324459;26;19997;-75
2024/04/13 09:51:11;;;;;;;9.00;3.10;;;;;;;21.86;85.13;99647.25;5329197;26;20076;-75
2024/04/13 09:53:37;;;;;;;10.27;3.45;;;;;;;21.92;85.75;99788.31;5306378;26;20023;-73
2024/04/13 09:56:03;;;;;;;13.02;3.50;;;;;;;21.14;85.22;99635.91;5321941;26;20398;-75
2024/04/13 09:58:29;;;;;;;12.40;4.25;;;;;;;21.00;85.28;99640.94;5325274;26;20005;-75
2024/04/13 10:00:55;;;;;;;7.80;4.20;;;;;;;20.16;87.28;99663.88;5320514;26;20006;-74
2024/04/13 10:03:21;;;;;;;;;;;;;;;21.36;88.35;100127.19;5328747;26;20456;-75
2024/04/13 10:05:46;;;;;;;11.43;3.40;;;;;;;22.28;83.29;99875.56;5320283;26;19926;-73
2024/04/13 10:08:13;;;;;;;8.55;3.58;;;;;;;22.49;82.04;99785.97;5324612;26;20000;-73
2024/04/13 10:10:50;;;;;;;10.48;3.03;;;;;;;23.00;80.49;99851.53;5334404;26;20025;-75
2024/04/13 10:13:26;;;;;;;13.43;4.13;;;;;;;22.91;79.34;99720.53;5333246;26;20011;-76
2024/04/13 10:15:52;;;;;;;9.35;2.97;;;;;;;23.45;77.52;99672.16;5322884;26;20020;-72
2024/04/13 10:18:18;;;;;;;9.27;2.75;;;;;;;23.60;75.73;99595.88;5332985;26;20041;-75
2024/04/13 10:20:46;;;;;;;9.43;3.33;;;;;;;21.93;76.04;99276.41;5327635;26;20419;-76
2024/04/13 10:23:11;;;;;;;11.88;4.07;;;;;;;21.03;77.74;99279.56;5337236;26;20005;-73
2024/04/13 10:25:37;;;;;;;12.87;4.03;;;;;;;21.51;78.03;99477.59;5330732;26;20489;-73
2024/04/13 10:28:12;;;;;;;8.50;3.20;;;;;;;22.38;77.56;99687.19;5323046;26;20002;-73
2024/04/13 10:30:48;;;;;;;12.60;4.32;;;;;;;21.76;76.62;99411.69;5324026;26;20363;-74
2024/04/13 10:33:22;;;;;;;9.68;2.92;;;;;;;22.43;77.51;99759.81;5332566;26;20013;-76
2024/04/13 10:35:58;;;;;;;10.55;3.20;;;;;;;21.95;74.74;99288.91;5302933;26;20110;-75
2024/04/13 10:38:25;;;;;;;10.90;3.17;;;;;;;21.88;76.30;99537.22;5320548;26;20055;-74
2024/04/13 10:40:50;;;;;;;10.00;3.33;;;;;;;21.28;74.26;99082.56;5326304;26;20012;-75
2024/04/13 10:43:17;;;;;;;9.67;2.97;;;;;;;21.49;77.45;99607.38;5331240;26;20001;-75
2024/04/13 10:45:49;;;;;;;7.53;3.08;;;;;;;21.15;77.28;99474.69;5327788;26;20039;-75
2024/04/13 10:48:17;;;;;;;9.05;3.05;;;;;;;21.63;79.64;99882.91;5332757;26;20001;-75
2024/04/13 10:50:44;;;;;;;8.63;3.28;;;;;;;22.09;77.28;99717.50;5325319;26;20005;-75
2024/04/13 10:53:12;;;;;;;9.05;3.17;;;;;;;21.69;76.89;99576.81;5333246;26;20021;-74
2024/04/13 10:55:38;;;;;;;7.97;3.20;;;;;;;21.62;77.67;99638.72;5330427;26;20020;-76
2024/04/13 10:58:04;;;;;;;11.18;3.42;;;;;;;21.33;77.15;99497.03;5333880;26;20041;-75
2024/04/13 11:00:30;;;;;;;6.78;3.25;;;;;;;21.08;77.97;99529.19;5337735;26;20533;-75
2024/04/13 11:02:55;;;;;;;10.93;3.25;;;;;;;21.02;79.49;99693.03;5336697;26;20044;-75
2024/04/13 11:05:21;;;;;;;11.45;3.97;;;;;;;21.63;80.24;99909.22;5330678;26;20052;-75
2024/04/13 11:07:47;;;;;;;12.70;4.27;;;;;;;21.38;79.01;99706.13;5329199;26;20467;-74
2024/04/13 11:10:13;;;;;;;6.93;3.78;;;;;;;21.13;80.97;99774.56;5333641;26;20377;-75